createdAt,value
2023-12-21T00:00:18.234Z,8.60
2023-12-21T00:02:45.286Z,8.60
2023-12-21T00:05:12.380Z,8.60
2023-12-21T00:07:39.881Z,8.60
2023-12-21T00:10:07.912Z,8.60
2023-12-21T00:12:35.267Z,8.60
2023-12-21T00:15:02.373Z,8.60
2023-12-21T00:17:29.565Z,8.60
2023-12-21T00:19:57.823Z,8.60
2023-12-21T00:22:25.317Z,8.60
2023-12-21T00:24:52.347Z,8.60
2023-12-21T00:27:19.612Z,8.60
2023-12-21T00:29:46.830Z,8.60
2023-12-21T00:32:14.023Z,8.60
2023-12-21T00:34:41.237Z,8.60
2023-12-21T00:37:08.392Z,8.60
2023-12-21T00:39:35.450Z,8.60
2023-12-21T00:42:02.514Z,8.60
2023-12-21T00:44:29.875Z,8.60
2023-12-21T00:46:56.964Z,8.60
2023-12-21T00:49:24.318Z,8.60
2023-12-21T00:51:51.471Z,8.60
2023-12-21T00:54:19.050Z,8.60
2023-12-21T00:56:46.087Z,8.60
2023-12-21T00:59:13.244Z,8.60
2023-12-21T01:01:40.350Z,8.60
2023-12-21T01:04:07.502Z,8.70
2023-12-21T01:06:37.384Z,8.60
2023-12-21T01:09:04.992Z,8.60
2023-12-21T01:11:32.182Z,8.60
2023-12-21T01:13:59.281Z,8.60
2023-12-21T01:16:26.671Z,8.60
2023-12-21T01:18:54.262Z,8.60
2023-12-21T01:21:21.380Z,8.60
2023-12-21T01:23:48.570Z,8.60
2023-12-21T01:26:15.695Z,8.60
2023-12-21T01:28:42.786Z,8.60
2023-12-21T01:31:10.303Z,8.60
2023-12-21T01:33:37.502Z,8.60
2023-12-21T01:36:10.369Z,8.70
2023-12-21T01:38:37.732Z,8.60
2023-12-21T01:41:05.141Z,8.70
2023-12-21T01:43:32.409Z,8.60
2023-12-21T01:46:01.592Z,8.60
2023-12-21T01:48:32.003Z,8.70
2023-12-21T01:51:00.582Z,8.60
2023-12-21T01:53:28.788Z,8.60
2023-12-21T01:55:56.525Z,8.60
2023-12-21T01:58:24.745Z,8.60
2023-12-21T02:00:53.922Z,8.60
2023-12-21T02:03:21.612Z,8.60
2023-12-21T02:05:48.697Z,8.60
2023-12-21T02:08:16.070Z,8.60
2023-12-21T02:10:44.625Z,8.60
2023-12-21T02:13:14.155Z,8.60
2023-12-21T02:15:41.883Z,8.60
2023-12-21T02:18:10.526Z,8.70
2023-12-21T02:20:40.389Z,8.70
2023-12-21T02:23:09.110Z,8.60
2023-12-21T02:25:36.873Z,8.70
2023-12-21T02:28:04.386Z,8.60
2023-12-21T02:30:31.475Z,8.60
2023-12-21T02:32:58.987Z,8.60
2023-12-21T02:35:26.089Z,8.70
2023-12-21T02:37:53.215Z,8.70
2023-12-21T02:40:20.255Z,8.70
2023-12-21T02:42:47.603Z,8.70
2023-12-21T02:45:14.846Z,8.70
2023-12-21T02:47:41.934Z,8.70
2023-12-21T02:50:09.572Z,8.70
2023-12-21T02:52:36.776Z,8.60
2023-12-21T02:55:04.832Z,8.70
2023-12-21T02:57:31.910Z,8.60
2023-12-21T02:59:59.007Z,8.70
2023-12-21T03:02:26.398Z,8.70
2023-12-21T03:04:53.660Z,8.70
2023-12-21T03:07:21.327Z,8.70
2023-12-21T03:09:48.431Z,8.70
2023-12-21T03:12:15.597Z,8.70
2023-12-21T03:14:42.739Z,8.70
2023-12-21T03:17:09.927Z,8.70
2023-12-21T03:19:37.155Z,8.70
2023-12-21T03:22:04.704Z,8.70
2023-12-21T03:24:32.541Z,8.70
2023-12-21T03:26:59.667Z,8.70
2023-12-21T03:29:26.690Z,8.70
2023-12-21T03:31:55.363Z,8.70
2023-12-21T03:34:22.689Z,8.70
2023-12-21T03:36:49.813Z,8.70
2023-12-21T03:39:17.071Z,8.70
2023-12-21T03:41:44.172Z,8.70
2023-12-21T03:44:11.191Z,8.70
2023-12-21T03:46:38.465Z,8.70
2023-12-21T03:49:06.416Z,8.70
2023-12-21T03:51:33.551Z,8.70
2023-12-21T03:54:00.604Z,8.70
2023-12-21T03:56:27.862Z,8.70
2023-12-21T03:58:54.949Z,8.70
2023-12-21T04:01:30.612Z,8.70
2023-12-21T04:03:57.921Z,8.70
2023-12-21T04:06:25.000Z,8.70
2023-12-21T04:08:55.323Z,8.70
2023-12-21T04:11:22.816Z,8.70
2023-12-21T04:13:50.566Z,8.70
2023-12-21T04:16:17.668Z,8.70
2023-12-21T04:18:45.037Z,8.70
2023-12-21T04:21:12.130Z,8.70
2023-12-21T04:23:39.261Z,8.80
2023-12-21T04:26:06.426Z,8.80
2023-12-21T04:28:34.558Z,8.80
2023-12-21T04:31:02.003Z,8.80
2023-12-21T04:33:29.252Z,8.80
2023-12-21T04:35:56.512Z,8.80
2023-12-21T04:38:23.540Z,8.80
2023-12-21T04:40:50.725Z,8.90
2023-12-21T04:43:17.901Z,8.90
2023-12-21T04:45:45.017Z,8.90
2023-12-21T04:48:12.230Z,8.80
2023-12-21T04:50:39.437Z,8.90
2023-12-21T04:53:06.575Z,8.90
2023-12-21T04:55:34.525Z,8.90
2023-12-21T04:58:01.598Z,8.90
2023-12-21T05:00:30.589Z,8.90
2023-12-21T05:02:58.376Z,8.90
2023-12-21T05:05:25.574Z,8.90
2023-12-21T05:07:54.298Z,8.90
2023-12-21T05:10:21.413Z,8.90
2023-12-21T05:12:48.810Z,8.90
2023-12-21T05:15:16.175Z,8.90
2023-12-21T05:17:43.339Z,8.90
2023-12-21T05:20:11.666Z,8.90
2023-12-21T05:22:38.821Z,8.90
2023-12-21T05:25:06.360Z,8.90
2023-12-21T05:27:33.538Z,8.90
2023-12-21T05:30:00.745Z,9.00
2023-12-21T05:32:28.147Z,9.00
2023-12-21T05:34:55.378Z,9.00
2023-12-21T05:37:22.618Z,9.00
2023-12-21T05:39:50.682Z,9.00
2023-12-21T05:42:17.738Z,9.00
2023-12-21T05:44:44.822Z,9.00
2023-12-21T05:47:12.016Z,9.00
2023-12-21T05:49:39.150Z,9.00
2023-12-21T05:52:07.064Z,9.10
2023-12-21T05:54:34.115Z,9.00
2023-12-21T05:57:02.957Z,9.00
2023-12-21T05:59:30.073Z,9.00
2023-12-21T06:01:57.328Z,9.00
2023-12-21T06:04:24.586Z,9.00
2023-12-21T06:06:51.829Z,9.00
2023-12-21T06:09:19.006Z,9.00
2023-12-21T06:11:48.554Z,9.00
2023-12-21T06:14:17.454Z,9.10
2023-12-21T06:16:44.629Z,9.00
2023-12-21T06:19:11.996Z,9.10
2023-12-21T06:21:40.076Z,9.10
2023-12-21T06:24:07.871Z,9.00
2023-12-21T06:26:41.088Z,9.00
2023-12-21T06:29:08.979Z,9.10
2023-12-21T06:31:36.530Z,9.10
2023-12-21T06:34:04.017Z,9.10
2023-12-21T06:36:32.687Z,9.10
2023-12-21T06:38:59.872Z,9.10
2023-12-21T06:41:29.610Z,9.10
2023-12-21T06:43:56.805Z,9.10
2023-12-21T06:46:23.901Z,9.10
2023-12-21T06:48:51.033Z,9.10
2023-12-21T06:51:18.172Z,9.20
2023-12-21T06:53:45.335Z,9.20
2023-12-21T06:56:24.238Z,9.10
2023-12-21T06:58:59.598Z,9.20
2023-12-21T07:01:30.344Z,9.10
2023-12-21T07:03:59.311Z,9.20
2023-12-21T07:06:26.807Z,9.20
2023-12-21T07:08:54.147Z,9.20
2023-12-21T07:11:21.341Z,9.20
2023-12-21T07:13:48.498Z,9.20
2023-12-21T07:16:15.555Z,9.20
2023-12-21T07:18:42.760Z,9.20
2023-12-21T07:21:09.997Z,9.20
2023-12-21T07:23:37.250Z,9.20
2023-12-21T07:26:04.823Z,9.20
2023-12-21T07:28:32.575Z,9.20
2023-12-21T07:31:02.801Z,9.30
2023-12-21T07:33:30.100Z,9.20
2023-12-21T07:35:57.200Z,9.20
2023-12-21T07:38:24.772Z,9.30
2023-12-21T07:40:53.171Z,9.30
2023-12-21T07:43:20.411Z,9.30
2023-12-21T07:45:47.616Z,9.30
2023-12-21T07:48:14.727Z,9.30
2023-12-21T07:50:42.034Z,9.30
2023-12-21T07:53:09.240Z,9.30
2023-12-21T07:55:36.430Z,9.30
2023-12-21T07:58:03.999Z,9.40
2023-12-21T08:00:31.165Z,9.40
2023-12-21T08:02:58.220Z,9.40
2023-12-21T08:05:25.614Z,9.40
2023-12-21T08:07:53.278Z,9.40
2023-12-21T08:10:20.410Z,9.40
2023-12-21T08:12:47.897Z,9.40
2023-12-21T08:15:15.734Z,9.40
2023-12-21T08:17:45.495Z,9.40
2023-12-21T08:20:13.879Z,9.40
2023-12-21T08:22:41.144Z,9.40
2023-12-21T08:25:11.092Z,9.40
2023-12-21T08:27:42.580Z,9.40
2023-12-21T08:30:13.767Z,9.40
2023-12-21T08:32:41.012Z,9.40
2023-12-21T08:35:09.528Z,9.40
2023-12-21T08:37:36.782Z,9.40
2023-12-21T08:40:04.660Z,9.40
2023-12-21T08:42:31.922Z,9.40
2023-12-21T08:45:03.439Z,9.40
2023-12-21T08:47:30.619Z,9.50
2023-12-21T08:50:04.570Z,9.50
2023-12-21T08:52:31.672Z,9.50
2023-12-21T08:54:58.806Z,9.50
2023-12-21T08:57:25.869Z,9.50
2023-12-21T08:59:53.357Z,9.50
2023-12-21T09:02:20.664Z,9.50
2023-12-21T09:04:49.483Z,9.50
2023-12-21T09:07:16.579Z,9.60
2023-12-21T09:09:43.772Z,9.50
2023-12-21T09:12:10.862Z,9.60
2023-12-21T09:14:37.912Z,9.60
2023-12-21T09:17:05.358Z,9.60
2023-12-21T09:19:36.123Z,9.60
2023-12-21T09:22:03.384Z,9.60
2023-12-21T09:24:30.429Z,9.60
2023-12-21T09:26:57.647Z,9.70
2023-12-21T09:29:24.827Z,9.70
2023-12-21T09:31:52.110Z,9.70
2023-12-21T09:34:19.472Z,9.70
2023-12-21T09:36:46.655Z,9.80
2023-12-21T09:39:13.801Z,9.80
2023-12-21T09:41:49.641Z,9.80
2023-12-21T09:44:29.480Z,9.80
2023-12-21T09:46:58.115Z,9.80
2023-12-21T09:49:25.405Z,9.80
2023-12-21T09:51:54.228Z,9.80
2023-12-21T09:54:23.127Z,9.80
2023-12-21T09:56:53.772Z,9.90
2023-12-21T09:59:22.620Z,10.00
2023-12-21T10:01:52.229Z,10.00
2023-12-21T10:04:20.607Z,10.00
2023-12-21T10:06:48.108Z,10.10
2023-12-21T10:09:17.145Z,10.10
2023-12-21T10:11:45.032Z,10.20
2023-12-21T10:14:22.467Z,10.30
2023-12-21T10:16:50.024Z,10.30
2023-12-21T10:19:18.250Z,10.40
2023-12-21T10:21:45.860Z,10.40
2023-12-21T10:24:13.723Z,10.40
2023-12-21T10:26:51.255Z,10.40
2023-12-21T10:29:19.183Z,10.40
2023-12-21T10:31:48.823Z,10.40
2023-12-21T10:34:17.049Z,10.50
2023-12-21T10:36:45.681Z,10.60
2023-12-21T10:39:15.615Z,10.60
2023-12-21T10:41:46.997Z,10.60
2023-12-21T10:44:19.400Z,10.60
2023-12-21T10:46:46.860Z,10.60
2023-12-21T10:49:15.037Z,10.60
2023-12-21T10:51:44.868Z,10.50
2023-12-21T10:54:14.040Z,10.50
2023-12-21T10:56:47.114Z,10.40
2023-12-21T10:59:16.092Z,10.40
2023-12-21T11:01:43.746Z,10.30
2023-12-21T11:04:12.851Z,10.30
2023-12-21T11:06:43.093Z,10.30
2023-12-21T11:09:12.590Z,10.30
2023-12-21T11:11:41.059Z,10.30
2023-12-21T11:14:08.581Z,10.40
2023-12-21T11:16:52.969Z,10.40
2023-12-21T11:19:34.182Z,10.50
2023-12-21T11:22:02.357Z,10.60
2023-12-21T11:24:29.704Z,10.60
2023-12-21T11:26:57.627Z,10.50
2023-12-21T11:29:29.338Z,10.40
2023-12-21T11:31:58.064Z,10.40
2023-12-21T11:34:41.182Z,10.40
2023-12-21T11:37:27.341Z,10.40
2023-12-21T11:40:00.950Z,10.50
2023-12-21T11:42:37.308Z,10.50
2023-12-21T11:45:09.021Z,10.50
2023-12-21T11:47:36.508Z,10.50
2023-12-21T11:50:11.946Z,10.50
2023-12-21T11:52:39.539Z,10.50
2023-12-21T11:55:07.406Z,10.50
2023-12-21T11:57:40.435Z,10.60
2023-12-21T12:00:18.157Z,10.60
2023-12-21T12:02:49.544Z,10.60
2023-12-21T12:05:25.112Z,10.70
2023-12-21T12:07:52.358Z,10.70
2023-12-21T12:10:20.144Z,10.70
2023-12-21T12:12:47.991Z,10.70
2023-12-21T12:15:16.027Z,10.70
2023-12-21T12:17:46.078Z,10.80
2023-12-21T12:20:14.401Z,10.80
2023-12-21T12:22:41.894Z,10.80
2023-12-21T12:25:10.334Z,10.80
2023-12-21T12:27:37.618Z,10.70
2023-12-21T12:30:05.366Z,10.60
2023-12-21T12:32:32.885Z,10.60
2023-12-21T12:35:00.024Z,10.50
2023-12-21T12:37:27.375Z,10.50
2023-12-21T12:39:54.600Z,10.40
2023-12-21T12:42:21.729Z,10.40
2023-12-21T12:44:52.549Z,10.40
2023-12-21T12:47:21.418Z,10.40
2023-12-21T12:49:48.820Z,10.30
2023-12-21T12:52:20.621Z,10.40
2023-12-21T12:54:48.418Z,10.30
2023-12-21T12:57:18.412Z,10.30
2023-12-21T12:59:45.817Z,10.40
2023-12-21T13:02:13.381Z,10.40
2023-12-21T13:04:40.892Z,10.40
2023-12-21T13:07:08.235Z,10.50
2023-12-21T13:09:36.323Z,10.60
2023-12-21T13:12:04.783Z,10.60
2023-12-21T13:14:32.117Z,10.60
2023-12-21T13:16:59.216Z,10.60
2023-12-21T13:19:26.890Z,10.50
2023-12-21T13:21:54.245Z,10.50
2023-12-21T13:24:21.964Z,10.50
2023-12-21T13:26:51.134Z,10.40
2023-12-21T13:29:19.632Z,10.40
2023-12-21T13:31:46.833Z,10.40
2023-12-21T13:34:14.932Z,10.40
2023-12-21T13:36:42.233Z,10.40
2023-12-21T13:39:09.328Z,10.40
2023-12-21T13:41:36.496Z,10.30
2023-12-21T13:44:10.593Z,10.30
2023-12-21T13:46:40.058Z,10.30
2023-12-21T13:49:07.978Z,10.30
2023-12-21T13:51:36.940Z,10.20
2023-12-21T13:54:04.572Z,10.20
2023-12-21T13:56:32.038Z,10.20
2023-12-21T13:58:59.176Z,10.20
2023-12-21T14:01:26.528Z,10.20
2023-12-21T14:03:56.583Z,10.20
2023-12-21T14:06:24.061Z,10.20
2023-12-21T14:08:51.161Z,10.20
2023-12-21T14:11:19.155Z,10.20
2023-12-21T14:13:46.373Z,10.20
2023-12-21T14:16:13.629Z,10.20
2023-12-21T14:18:41.176Z,10.20
2023-12-21T14:21:08.400Z,10.20
2023-12-21T14:23:35.471Z,10.20
2023-12-21T14:26:02.923Z,10.20
2023-12-21T14:28:36.325Z,10.20
2023-12-21T14:31:10.357Z,10.20
2023-12-21T14:33:37.438Z,10.20
2023-12-21T14:36:05.034Z,10.30
2023-12-21T14:38:32.150Z,10.20
2023-12-21T14:40:59.311Z,10.30
2023-12-21T14:43:26.350Z,10.30
2023-12-21T14:45:53.470Z,10.40
2023-12-21T14:48:23.913Z,10.70
2023-12-21T14:50:52.575Z,10.90
2023-12-21T14:53:19.695Z,10.80
2023-12-21T14:55:48.644Z,10.80
2023-12-21T14:58:15.930Z,10.80
2023-12-21T15:00:43.223Z,10.70
2023-12-21T15:03:10.318Z,10.60
2023-12-21T15:05:37.571Z,10.80
2023-12-21T15:08:06.576Z,10.70
2023-12-21T15:10:34.871Z,10.90
2023-12-21T15:13:03.580Z,10.80
2023-12-21T15:15:30.647Z,10.80
2023-12-21T15:17:57.869Z,10.80
2023-12-21T15:20:25.085Z,10.80
2023-12-21T15:22:53.100Z,10.80
2023-12-21T15:25:20.279Z,10.80
2023-12-21T15:27:47.668Z,10.90
2023-12-21T15:30:15.476Z,10.80
2023-12-21T15:32:42.515Z,10.80
2023-12-21T15:35:09.853Z,10.80
2023-12-21T15:37:36.927Z,10.80
2023-12-21T15:40:04.976Z,10.70
2023-12-21T15:42:32.205Z,10.80
2023-12-21T15:44:59.225Z,10.70
2023-12-21T15:47:27.095Z,10.70
2023-12-21T15:49:54.354Z,10.70
2023-12-21T15:52:21.405Z,10.70
2023-12-21T15:54:48.660Z,10.60
2023-12-21T15:57:15.916Z,10.30
2023-12-21T15:59:43.392Z,10.30
2023-12-21T16:02:10.391Z,10.20
2023-12-21T16:04:37.441Z,10.00
2023-12-21T16:07:04.725Z,10.00
2023-12-21T16:09:31.799Z,10.00
2023-12-21T16:11:58.939Z,9.90
2023-12-21T16:14:25.994Z,10.10
2023-12-21T16:16:53.138Z,10.10
2023-12-21T16:19:20.361Z,10.00
2023-12-21T16:21:50.497Z,10.00
2023-12-21T16:24:18.583Z,9.90
2023-12-21T16:26:45.743Z,9.90
2023-12-21T16:29:12.937Z,10.00
2023-12-21T16:31:39.988Z,9.90
2023-12-21T16:34:07.493Z,9.90
2023-12-21T16:36:34.649Z,9.90
2023-12-21T16:39:01.786Z,10.00
2023-12-21T16:41:28.921Z,10.10
2023-12-21T16:43:56.287Z,10.10
2023-12-21T16:46:23.620Z,10.10
2023-12-21T16:48:50.749Z,10.00
2023-12-21T16:51:17.950Z,10.00
2023-12-21T16:53:44.995Z,10.10
2023-12-21T16:56:12.751Z,9.70
2023-12-21T16:58:39.844Z,9.60
2023-12-21T17:01:08.755Z,9.60
2023-12-21T17:03:35.936Z,9.40
2023-12-21T17:06:03.084Z,9.40
2023-12-21T17:08:31.103Z,9.50
2023-12-21T17:10:58.339Z,9.60
2023-12-21T17:13:25.646Z,9.60
2023-12-21T17:15:52.885Z,9.70
2023-12-21T17:18:19.989Z,9.80
2023-12-21T17:20:47.082Z,9.70
2023-12-21T17:23:15.552Z,9.70
2023-12-21T17:25:43.115Z,9.70
2023-12-21T17:28:12.537Z,9.80
2023-12-21T17:30:40.300Z,9.80
2023-12-21T17:33:07.898Z,9.70
2023-12-21T17:35:35.114Z,9.90
2023-12-21T17:38:02.354Z,9.80
2023-12-21T17:40:29.681Z,9.90
2023-12-21T17:42:56.712Z,9.90
2023-12-21T17:45:25.534Z,9.90
2023-12-21T17:47:53.417Z,9.80
2023-12-21T17:50:20.773Z,9.80
2023-12-21T17:52:50.323Z,9.90
2023-12-21T17:55:17.960Z,9.60
2023-12-21T17:57:45.282Z,9.40
2023-12-21T18:00:13.004Z,9.50
2023-12-21T18:02:41.334Z,9.50
2023-12-21T18:05:09.042Z,9.40
2023-12-21T18:07:36.452Z,9.50
2023-12-21T18:10:04.448Z,9.30
2023-12-21T18:12:31.683Z,9.60
2023-12-21T18:14:59.399Z,9.50
2023-12-21T18:17:26.969Z,9.40
2023-12-21T18:19:54.877Z,9.50
2023-12-21T18:22:21.974Z,9.60
2023-12-21T18:24:49.651Z,9.60
2023-12-21T18:27:18.777Z,9.50
2023-12-21T18:29:45.939Z,9.50
2023-12-21T18:32:13.260Z,9.70
2023-12-21T18:34:40.350Z,9.40
2023-12-21T18:37:07.564Z,9.50
2023-12-21T18:39:34.854Z,9.50
2023-12-21T18:42:02.225Z,9.60
2023-12-21T18:44:29.522Z,9.60
2023-12-21T18:46:56.652Z,9.50
2023-12-21T18:49:23.918Z,9.20
2023-12-21T18:51:51.880Z,8.30
2023-12-21T18:54:19.065Z,7.80
2023-12-21T18:56:46.106Z,7.60
2023-12-21T18:59:13.233Z,7.50
2023-12-21T19:01:40.237Z,7.30
2023-12-21T19:04:07.378Z,7.10
2023-12-21T19:06:34.578Z,7.00
2023-12-21T19:09:01.630Z,6.80
2023-12-21T19:11:29.566Z,6.80
2023-12-21T19:13:58.166Z,6.50
2023-12-21T19:16:25.578Z,6.20
2023-12-21T19:18:52.746Z,5.90
2023-12-21T19:21:19.830Z,5.60
2023-12-21T19:23:46.955Z,5.60
2023-12-21T19:26:14.040Z,5.60
2023-12-21T19:28:41.978Z,5.70
2023-12-21T19:31:12.157Z,5.70
2023-12-21T19:33:39.482Z,5.80
2023-12-21T19:36:07.443Z,5.90
2023-12-21T19:38:34.730Z,5.90
2023-12-21T19:41:01.748Z,6.00
2023-12-21T19:43:29.309Z,6.00
2023-12-21T19:46:00.920Z,6.00
2023-12-21T19:48:28.277Z,5.90
2023-12-21T19:50:55.930Z,5.70
2023-12-21T19:53:23.772Z,5.70
2023-12-21T19:55:50.953Z,5.70
2023-12-21T19:58:19.169Z,5.70
2023-12-21T20:00:46.392Z,5.70
2023-12-21T20:03:14.722Z,5.70
2023-12-21T20:05:42.751Z,5.70
2023-12-21T20:08:10.710Z,5.70
2023-12-21T20:10:38.691Z,5.60
2023-12-21T20:13:06.303Z,5.60
2023-12-21T20:15:33.432Z,5.60
2023-12-21T20:18:00.772Z,5.60
2023-12-21T20:20:28.042Z,5.60
2023-12-21T20:22:57.475Z,5.50
2023-12-21T20:25:25.524Z,5.50
2023-12-21T20:27:54.667Z,5.40
2023-12-21T20:30:22.621Z,5.40
2023-12-21T20:32:51.808Z,5.50
2023-12-21T20:35:19.744Z,5.50
2023-12-21T20:37:48.291Z,5.40
2023-12-21T20:40:17.903Z,5.50
2023-12-21T20:42:46.737Z,5.50
2023-12-21T20:45:14.949Z,5.50
2023-12-21T20:47:44.503Z,5.50
2023-12-21T20:50:14.561Z,5.50
2023-12-21T20:52:42.090Z,5.50
2023-12-21T20:55:09.802Z,5.50
2023-12-21T20:57:37.143Z,5.50
2023-12-21T21:00:04.900Z,5.40
2023-12-21T21:02:31.917Z,5.40
2023-12-21T21:04:59.559Z,5.40
2023-12-21T21:07:26.887Z,5.30
2023-12-21T21:09:54.066Z,5.30
2023-12-21T21:12:21.067Z,5.30
2023-12-21T21:14:48.311Z,5.40
2023-12-21T21:17:15.474Z,5.40
2023-12-21T21:19:42.681Z,5.40
2023-12-21T21:22:09.926Z,5.40
2023-12-21T21:24:37.027Z,5.40
2023-12-21T21:27:04.462Z,5.50
2023-12-21T21:29:31.680Z,5.50
2023-12-21T21:31:58.825Z,5.50
2023-12-21T21:34:26.541Z,5.50
2023-12-21T21:36:53.793Z,5.50
2023-12-21T21:39:20.864Z,5.50
2023-12-21T21:41:51.434Z,5.60
2023-12-21T21:44:18.734Z,5.60
2023-12-21T21:46:45.832Z,5.60
2023-12-21T21:49:13.221Z,5.60
2023-12-21T21:51:42.693Z,5.60
2023-12-21T21:54:10.261Z,5.60
2023-12-21T21:56:40.484Z,5.70
2023-12-21T21:59:07.954Z,5.70
2023-12-21T22:01:35.148Z,5.70
2023-12-21T22:04:02.299Z,5.80
2023-12-21T22:06:29.568Z,5.80
2023-12-21T22:08:56.722Z,5.80
2023-12-21T22:11:25.076Z,5.80
2023-12-21T22:13:52.180Z,5.90
2023-12-21T22:16:19.387Z,5.90
2023-12-21T22:18:47.966Z,5.90
2023-12-21T22:21:19.071Z,6.00
2023-12-21T22:23:46.321Z,6.10
2023-12-21T22:26:21.350Z,6.30
2023-12-21T22:28:49.482Z,6.50
2023-12-21T22:31:16.990Z,6.50
2023-12-21T22:33:44.377Z,6.70
2023-12-21T22:36:12.410Z,6.90
2023-12-21T22:38:39.573Z,7.00
2023-12-21T22:41:06.845Z,7.00
2023-12-21T22:43:41.950Z,6.90
2023-12-21T22:46:10.850Z,7.00
2023-12-21T22:48:38.122Z,7.00
2023-12-21T22:51:05.477Z,7.00
2023-12-21T22:53:32.845Z,7.00
2023-12-21T22:56:00.285Z,7.00
2023-12-21T22:58:27.549Z,7.20
2023-12-21T23:00:55.470Z,7.10
2023-12-21T23:03:22.514Z,7.20
2023-12-21T23:05:49.687Z,7.30
2023-12-21T23:08:16.812Z,7.40
2023-12-21T23:10:44.912Z,7.50
2023-12-21T23:13:19.036Z,7.50
2023-12-21T23:15:46.807Z,7.70
2023-12-21T23:18:15.117Z,7.40
2023-12-21T23:20:42.549Z,7.50
2023-12-21T23:23:09.639Z,7.50
2023-12-21T23:25:36.926Z,7.60
2023-12-21T23:28:04.755Z,7.60
2023-12-21T23:30:31.908Z,7.40
2023-12-21T23:32:59.171Z,7.20
2023-12-21T23:35:27.807Z,6.90
2023-12-21T23:37:55.410Z,6.90
2023-12-21T23:40:23.174Z,6.90
2023-12-21T23:42:50.514Z,6.80
2023-12-21T23:45:17.751Z,6.90
2023-12-21T23:47:44.965Z,6.60
2023-12-21T23:50:12.182Z,6.60
2023-12-21T23:52:39.344Z,6.60
2023-12-21T23:55:07.462Z,6.50
2023-12-21T23:57:34.676Z,6.50
